Time;durP1;ratioP1;P1;durP2;ratioP2;P2;SDS_P1;SDS_P2;PMS_P1;PMS_P2;Temp;Humidity;BMP_temperature;BMP_pressure;BME280_temperature;BME280_humidity;BME280_pressure;Samples;Min_cycle;Max_cycle;Signal;HPM_P1;HPM_P2
2023/09/26 00:01:19;;;;;;;23.40;9.20;;;22.60;99.90;;;;;;5227959;28;20060;-74
2023/09/26 00:03:49;;;;;;;24.77;9.50;;;22.60;99.90;;;;;;5227488;28;20037;-74
2023/09/26 00:06:22;;;;;;;25.92;8.57;;;22.60;99.90;;;;;;5227661;28;20490;-74
2023/09/26 00:08:54;;;;;;;26.33;10.00;;;22.60;99.90;;;;;;5227459;28;20437;-74
2023/09/26 00:11:24;;;;;;;24.83;8.73;;;22.50;99.90;;;;;;5227326;28;20023;-74
2023/09/26 00:13:55;;;;;;;21.98;9.27;;;22.60;99.90;;;;;;5225762;28;20052;-74
2023/09/26 00:16:26;;;;;;;25.80;9.07;;;22.50;99.90;;;;;;5228088;28;20047;-74
2023/09/26 00:18:57;;;;;;;23.95;10.48;;;22.50;99.90;;;;;;5227250;28;20047;-74
2023/09/26 00:21:29;;;;;;;25.23;9.55;;;22.60;99.90;;;;;;5228555;28;20105;-74
2023/09/26 00:24:00;;;;;;;31.77;10.85;;;22.60;99.90;;;;;;5228408;28;20039;-74
2023/09/26 00:26:31;;;;;;;26.10;10.35;;;22.50;99.90;;;;;;5228520;28;20029;-74
2023/09/26 00:29:02;;;;;;;21.80;8.60;;;22.50;99.90;;;;;;5228296;28;20104;-74
2023/09/26 00:31:33;;;;;;;34.55;9.98;;;22.50;99.90;;;;;;5228220;28;20021;-74
2023/09/26 00:34:04;;;;;;;24.25;9.55;;;22.60;99.90;;;;;;5228322;28;20025;-74
2023/09/26 00:36:35;;;;;;;27.95;10.20;;;22.60;99.90;;;;;;5228321;28;20033;-74
2023/09/26 00:39:06;;;;;;;24.95;9.73;;;22.50;99.90;;;;;;5228336;28;20025;-74
2023/09/26 00:41:38;;;;;;;26.40;9.88;;;22.50;99.90;;;;;;5227929;28;20033;-74
2023/09/26 00:44:11;;;;;;;26.55;11.02;;;22.60;99.90;;;;;;5227805;28;20071;-73
2023/09/26 00:46:43;;;;;;;18.23;9.90;;;22.50;99.90;;;;;;5227983;28;20028;-74
2023/09/26 00:49:15;;;;;;;27.70;10.32;;;22.50;99.90;;;;;;5228243;28;20028;-74
2023/09/26 00:51:47;;;;;;;21.48;9.98;;;22.50;99.90;;;;;;5227940;28;20017;-74
2023/09/26 00:54:18;;;;;;;25.10;9.80;;;22.50;99.90;;;;;;5227088;28;20021;-74
2023/09/26 00:56:49;;;;;;;23.75;10.43;;;22.50;99.90;;;;;;5227064;28;20063;-74
2023/09/26 00:59:20;;;;;;;31.13;10.57;;;22.40;99.90;;;;;;5226627;28;20036;-74
2023/09/26 01:01:51;;;;;;;23.20;9.55;;;22.50;99.90;;;;;;5226466;28;20021;-74
2023/09/26 01:04:22;;;;;;;22.60;10.00;;;22.50;99.90;;;;;;5226371;28;20399;-74
2023/09/26 01:06:53;;;;;;;23.27;9.25;;;22.40;99.90;;;;;;5226530;28;20460;-74
2023/09/26 01:09:24;;;;;;;28.83;10.23;;;22.50;99.90;;;;;;5226306;28;20064;-74
2023/09/26 01:11:56;;;;;;;22.27;10.23;;;22.50;99.90;;;;;;5226467;28;20021;-74
2023/09/26 01:14:27;;;;;;;23.08;11.18;;;22.40;99.90;;;;;;5227350;28;20048;-74
2023/09/26 01:16:58;;;;;;;22.88;10.35;;;22.40;99.90;;;;;;5227222;28;20116;-74
2023/09/26 01:19:29;;;;;;;23.58;10.43;;;22.60;99.90;;;;;;5227203;28;20083;-73
2023/09/26 01:22:00;;;;;;;18.45;9.98;;;22.60;99.90;;;;;;5227310;28;20021;-74
2023/09/26 01:24:31;;;;;;;19.52;10.50;;;22.50;99.90;;;;;;5227042;28;20098;-74
2023/09/26 01:27:01;;;;;;;19.55;10.48;;;22.50;99.90;;;;;;5227179;28;20021;-74
2023/09/26 01:29:32;;;;;;;18.95;11.07;;;22.50;99.90;;;;;;5227230;28;20473;-74
2023/09/26 01:32:03;;;;;;;21.48;12.10;;;22.40;99.90;;;;;;5227183;28;20488;-74
2023/09/26 01:34:34;;;;;;;24.55;11.65;;;22.40;99.90;;;;;;5226984;28;20372;-74
2023/09/26 01:37:07;;;;;;;17.85;9.90;;;22.40;99.90;;;;;;5226921;28;20377;-74
2023/09/26 01:39:38;;;;;;;19.55;11.00;;;22.50;99.90;;;;;;5226889;28;20427;-74
2023/09/26 01:42:09;;;;;;;21.20;11.50;;;22.40;99.90;;;;;;5226858;28;20029;-74
2023/09/26 01:44:39;;;;;;;18.88;11.35;;;22.40;99.90;;;;;;5226613;28;20535;-74
2023/09/26 01:47:25;;;;;;;20.23;10.23;;;22.50;99.90;;;;;;5227314;28;20033;-74
2023/09/26 01:49:56;;;;;;;18.50;11.20;;;22.40;99.90;;;;;;5226238;28;20098;-74
2023/09/26 01:52:26;;;;;;;14.95;10.68;;;22.40;99.90;;;;;;5226246;28;20028;-74
2023/09/26 01:54:57;;;;;;;21.92;11.38;;;22.40;99.90;;;;;;5225514;28;20466;-74
2023/09/26 01:57:28;;;;;;;20.40;11.60;;;22.40;99.90;;;;;;5225404;28;20033;-74
2023/09/26 02:00:11;;;;;;;22.05;10.65;;;22.50;99.90;;;;;;5225221;28;20021;-74
2023/09/26 02:02:44;;;;;;;19.25;11.27;;;22.40;99.90;;;;;;5225284;28;20055;-74
2023/09/26 02:05:18;;;;;;;21.52;11.45;;;22.40;99.90;;;;;;5225495;28;20063;-74
2023/09/26 02:07:49;;;;;;;23.55;12.10;;;22.40;99.90;;;;;;5225605;28;20393;-74
2023/09/26 02:10:20;;;;;;;22.90;12.30;;;22.30;99.90;;;;;;5225606;28;20060;-74
2023/09/26 02:12:51;;;;;;;18.10;11.77;;;22.30;99.90;;;;;;5225842;28;20037;-73
2023/09/26 02:15:22;;;;;;;20.60;13.27;;;22.40;99.90;;;;;;5226207;28;20044;-74
2023/09/26 02:17:53;;;;;;;20.92;13.60;;;22.40;99.90;;;;;;5226174;28;20029;-73
2023/09/26 02:20:24;;;;;;;25.58;13.15;;;22.30;99.90;;;;;;5226201;28;20048;-74
2023/09/26 02:22:56;;;;;;;20.35;13.10;;;22.30;99.90;;;;;;5226000;28;20508;-73
2023/09/26 02:25:28;;;;;;;20.25;12.80;;;22.30;99.90;;;;;;5226025;28;20117;-74
2023/09/26 02:27:59;;;;;;;19.17;12.48;;;22.30;99.90;;;;;;5226124;28;20040;-74
2023/09/26 02:30:30;;;;;;;20.33;13.68;;;22.30;99.90;;;;;;5225897;28;20029;-74
2023/09/26 02:33:00;;;;;;;19.02;12.70;;;22.30;99.90;;;;;;5225981;28;20036;-74
2023/09/26 02:35:31;;;;;;;20.48;12.98;;;22.40;99.90;;;;;;5225774;28;20448;-74
2023/09/26 02:38:02;;;;;;;17.63;12.18;;;22.30;99.90;;;;;;5225855;28;20044;-74
2023/09/26 02:40:33;;;;;;;18.85;12.30;;;22.30;99.90;;;;;;5225671;28;20021;-74
2023/09/26 02:43:04;;;;;;;21.23;12.18;;;22.30;99.90;;;;;;5225706;28;20033;-74
2023/09/26 02:45:35;;;;;;;19.33;12.80;;;22.30;99.90;;;;;;5225319;28;20476;-74
2023/09/26 02:48:06;;;;;;;20.35;12.30;;;22.20;99.90;;;;;;5225429;28;20017;-74
2023/09/26 02:50:37;;;;;;;22.95;12.85;;;22.30;99.90;;;;;;5224495;28;20062;-74
2023/09/26 02:53:08;;;;;;;20.15;13.25;;;22.40;99.90;;;;;;5224626;28;20025;-74
2023/09/26 02:55:40;;;;;;;19.77;12.68;;;22.30;99.90;;;;;;5224459;28;20032;-75
2023/09/26 02:58:11;;;;;;;17.30;11.65;;;22.50;99.90;;;;;;5224607;28;20124;-74
2023/09/26 03:00:42;;;;;;;19.50;12.82;;;22.40;99.90;;;;;;5224840;28;20124;-74
2023/09/26 03:03:13;;;;;;;18.50;12.75;;;22.40;99.90;;;;;;5224379;28;20124;-74
2023/09/26 03:05:51;;;;;;;19.15;12.80;;;22.40;99.90;;;;;;5225563;28;20381;-74
2023/09/26 03:08:22;;;;;;;21.50;13.13;;;22.40;99.90;;;;;;5225628;28;20730;-74
2023/09/26 03:10:58;;;;;;;20.92;12.60;;;22.40;99.90;;;;;;5225379;28;20075;-73
2023/09/26 03:13:33;;;;;;;17.00;13.32;;;22.40;99.90;;;;;;5225184;28;20400;-74
2023/09/26 03:16:07;;;;;;;19.55;12.63;;;22.40;99.90;;;;;;5225443;28;20033;-74
2023/09/26 03:18:37;;;;;;;19.75;12.35;;;22.50;99.90;;;;;;5225589;28;20067;-74
2023/09/26 03:21:08;;;;;;;17.52;13.65;;;22.40;99.90;;;;;;5228547;28;20021;-74
2023/09/26 03:23:39;;;;;;;15.55;11.73;;;22.40;99.90;;;;;;5229713;28;20091;-74
2023/09/26 03:26:12;;;;;;;19.85;12.00;;;22.50;99.90;;;;;;5229513;28;20032;-74
2023/09/26 03:28:43;;;;;;;16.52;12.63;;;22.50;99.90;;;;;;5229561;28;20083;-74
2023/09/26 03:31:14;;;;;;;16.42;12.55;;;22.40;99.90;;;;;;5229586;28;20028;-73
2023/09/26 03:33:45;;;;;;;17.20;12.27;;;22.50;99.90;;;;;;5229390;28;20040;-74
2023/09/26 03:36:18;;;;;;;17.40;11.50;;;22.50;99.90;;;;;;5229358;28;20025;-74
2023/09/26 03:38:49;;;;;;;22.25;12.10;;;22.50;99.90;;;;;;5229198;28;20400;-73
2023/09/26 03:41:20;;;;;;;17.20;13.18;;;22.40;99.90;;;;;;5228505;28;20679;-74
2023/09/26 03:43:51;;;;;;;18.35;12.27;;;22.50;99.90;;;;;;5228693;28;20047;-74
2023/09/26 03:46:22;;;;;;;16.05;13.18;;;22.50;99.90;;;;;;5227904;28;20029;-74
2023/09/26 03:48:53;;;;;;;19.70;12.98;;;22.40;99.90;;;;;;5227974;28;20029;-74
2023/09/26 03:51:23;;;;;;;19.20;13.13;;;22.50;99.90;;;;;;5227735;28;20031;-74
2023/09/26 03:53:54;;;;;;;18.45;13.05;;;22.40;99.90;;;;;;5227870;28;20102;-74
2023/09/26 03:56:25;;;;;;;18.10;12.20;;;22.50;99.90;;;;;;5227950;28;20103;-74
2023/09/26 03:58:57;;;;;;;20.02;13.50;;;22.50;99.90;;;;;;5227891;28;20021;-74
2023/09/26 04:01:28;;;;;;;22.02;13.18;;;22.50;99.90;;;;;;5228930;28;20032;-74
2023/09/26 04:03:59;;;;;;;19.30;12.50;;;22.50;99.90;;;;;;5228620;28;20029;-74
2023/09/26 04:06:32;;;;;;;21.08;13.30;;;22.50;99.90;;;;;;5228727;28;20017;-74
2023/09/26 04:09:03;;;;;;;24.90;13.82;;;22.50;99.90;;;;;;5228863;28;20052;-74
2023/09/26 04:11:34;;;;;;;19.35;13.90;;;22.50;99.90;;;;;;5228798;28;20028;-74
2023/09/26 04:14:05;;;;;;;16.48;13.40;;;22.50;99.90;;;;;;5227261;28;20080;-74
2023/09/26 04:16:38;;;;;;;19.25;13.30;;;22.50;99.90;;;;;;5228527;28;20052;-74
2023/09/26 04:19:09;;;;;;;22.58;13.20;;;22.50;99.90;;;;;;5228369;28;20114;-74
2023/09/26 04:21:39;;;;;;;19.35;13.02;;;22.50;99.90;;;;;;5228675;28;20052;-74
2023/09/26 04:24:11;;;;;;;18.08;13.23;;;22.50;99.90;;;;;;5228368;28;20864;-74
2023/09/26 04:26:42;;;;;;;19.27;13.02;;;22.50;99.90;;;;;;5227156;28;20025;-74
2023/09/26 04:29:13;;;;;;;17.38;12.65;;;22.50;99.90;;;;;;5228229;28;20036;-74
2023/09/26 04:31:44;;;;;;;20.70;12.75;;;22.60;99.90;;;;;;5227727;28;20025;-74
2023/09/26 04:34:15;;;;;;;26.45;13.65;;;22.60;99.90;;;;;;5228373;28;20372;-74
2023/09/26 04:36:45;;;;;;;18.52;13.25;;;22.60;99.90;;;;;;5227845;28;20028;-74
2023/09/26 04:39:18;;;;;;;25.38;13.40;;;22.60;99.90;;;;;;5227712;28;20021;-74
2023/09/26 04:41:49;;;;;;;18.80;13.70;;;22.60;99.90;;;;;;5226687;28;20033;-74
2023/09/26 04:44:19;;;;;;;22.73;13.73;;;22.60;99.90;;;;;;5226550;28;20094;-74
2023/09/26 04:46:50;;;;;;;19.60;12.45;;;22.60;99.90;;;;;;5226798;28;20032;-74
2023/09/26 04:49:22;;;;;;;24.30;13.05;;;22.60;99.90;;;;;;5226683;28;20017;-74
2023/09/26 04:51:53;;;;;;;18.95;12.07;;;22.70;99.90;;;;;;5226540;28;20047;-74
2023/09/26 04:54:24;;;;;;;20.30;12.98;;;22.70;99.90;;;;;;5226804;28;20032;-74
2023/09/26 04:56:55;;;;;;;24.10;13.10;;;22.70;99.90;;;;;;5227818;28;20029;-73
2023/09/26 04:59:27;;;;;;;18.23;12.20;;;22.80;99.90;;;;;;5227754;28;20028;-74
2023/09/26 05:01:58;;;;;;;21.27;12.05;;;22.80;99.90;;;;;;5226567;28;20480;-73
2023/09/26 05:04:29;;;;;;;18.33;12.05;;;22.80;99.90;;;;;;5227629;28;20052;-74
2023/09/26 05:07:00;;;;;;;18.38;11.77;;;22.80;99.90;;;;;;5227630;28;20021;-74
2023/09/26 05:09:31;;;;;;;15.75;11.95;;;22.80;99.90;;;;;;5227398;28;20024;-74
2023/09/26 05:12:02;;;;;;;18.52;12.02;;;22.80;99.90;;;;;;5227039;28;20040;-74
2023/09/26 05:14:33;;;;;;;22.40;11.65;;;22.80;99.90;;;;;;5227653;28;20021;-73
2023/09/26 05:17:04;;;;;;;21.50;11.70;;;22.80;99.90;;;;;;5227597;28;20385;-73
2023/09/26 05:19:35;;;;;;;24.02;12.77;;;22.90;99.90;;;;;;5226538;28;20031;-73
2023/09/26 05:22:06;;;;;;;22.17;12.65;;;23.00;99.90;;;;;;5227422;28;20056;-73
2023/09/26 05:24:36;;;;;;;20.75;12.05;;;23.00;99.90;;;;;;5225774;28;20053;-73
2023/09/26 05:27:07;;;;;;;22.73;11.52;;;22.90;99.90;;;;;;5227337;28;20040;-73
2023/09/26 05:29:38;;;;;;;19.73;12.07;;;23.00;99.90;;;;;;5226952;28;20028;-74
2023/09/26 05:32:09;;;;;;;22.60;12.13;;;23.00;99.90;;;;;;5226817;28;20067;-74
2023/09/26 05:34:40;;;;;;;23.02;11.82;;;23.00;99.90;;;;;;5226654;28;20031;-73
2023/09/26 05:37:11;;;;;;;16.20;11.27;;;23.10;99.90;;;;;;5225973;28;20025;-74
2023/09/26 05:39:42;;;;;;;21.73;12.57;;;23.30;99.90;;;;;;5225367;28;20115;-74
2023/09/26 05:42:13;;;;;;;24.05;12.02;;;23.40;99.90;;;;;;5225598;28;20103;-73
2023/09/26 05:44:44;;;;;;;24.40;12.32;;;23.60;99.90;;;;;;5224635;28;20076;-74
2023/09/26 05:47:15;;;;;;;20.58;12.55;;;23.50;99.90;;;;;;5225698;28;20025;-73
2023/09/26 05:49:50;;;;;;;21.35;11.88;;;23.40;99.90;;;;;;5226341;28;20019;-73
2023/09/26 05:52:20;;;;;;;18.77;10.82;;;23.50;99.90;;;;;;5226662;28;20032;-74
2023/09/26 05:54:51;;;;;;;29.33;11.55;;;23.50;99.90;;;;;;5226752;28;20472;-74
2023/09/26 05:57:22;;;;;;;21.60;11.35;;;23.50;99.90;;;;;;5226644;28;20033;-74
2023/09/26 05:59:53;;;;;;;21.38;10.57;;;23.40;99.90;;;;;;5226677;28;20051;-73
2023/09/26 06:02:24;;;;;;;21.17;11.10;;;23.50;99.90;;;;;;5226512;28;20032;-73
2023/09/26 06:04:55;;;;;;;23.25;11.75;;;23.40;99.90;;;;;;5226484;28;20147;-73
2023/09/26 06:07:27;;;;;;;21.63;11.35;;;23.50;99.90;;;;;;5226376;28;20100;-73
2023/09/26 06:09:58;;;;;;;17.05;10.27;;;23.60;99.90;;;;;;5226305;28;20033;-74
2023/09/26 06:12:30;;;;;;;21.17;11.15;;;23.80;99.90;;;;;;5226038;28;20382;-74
2023/09/26 06:15:01;;;;;;;20.55;10.35;;;23.80;99.90;;;;;;5226487;28;20029;-74
2023/09/26 06:17:32;;;;;;;17.48;10.52;;;23.80;99.90;;;;;;5226278;28;20476;-73
2023/09/26 06:20:08;;;;;;;15.85;10.50;;;23.90;99.90;;;;;;5226217;28;20013;-74
2023/09/26 06:22:39;;;;;;;18.23;10.70;;;23.90;99.90;;;;;;5226313;28;20081;-73
2023/09/26 06:25:10;;;;;;;19.98;11.02;;;23.90;99.90;;;;;;5226081;28;20025;-73
2023/09/26 06:27:41;;;;;;;19.63;10.50;;;23.80;99.90;;;;;;5226462;28;20032;-74
2023/09/26 06:30:12;;;;;;;19.20;11.60;;;23.80;99.90;;;;;;5225262;28;20028;-74
2023/09/26 06:32:43;;;;;;;18.90;10.65;;;23.80;99.90;;;;;;5225352;28;20025;-74
2023/09/26 06:35:14;;;;;;;22.42;11.00;;;24.00;99.90;;;;;;5224618;28;20029;-74
2023/09/26 06:37:45;;;;;;;21.38;10.60;;;24.00;99.90;;;;;;5224783;28;20021;-74
2023/09/26 06:40:16;;;;;;;22.75;11.15;;;24.00;99.90;;;;;;5657738;22;20071;-75
2023/09/26 06:42:47;;;;;;;25.70;11.00;;;24.00;99.90;;;;;;5224565;28;20025;-75
2023/09/26 06:45:18;;;;;;;14.45;10.13;;;23.90;99.90;;;;;;5224762;28;20021;-75
2023/09/26 06:47:49;;;;;;;25.30;10.20;;;24.10;99.90;;;;;;5225541;28;20025;-75
2023/09/26 06:50:21;;;;;;;21.27;10.18;;;24.10;99.90;;;;;;5225911;28;20044;-75
2023/09/26 06:52:52;;;;;;;20.17;10.57;;;24.00;99.90;;;;;;5225810;28;20024;-75
2023/09/26 06:55:23;;;;;;;18.20;11.18;;;24.00;99.90;;;;;;5225623;28;20111;-75
2023/09/26 06:57:54;;;;;;;19.15;10.57;;;24.20;99.90;;;;;;5224530;28;20135;-75
2023/09/26 07:00:25;;;;;;;14.45;9.13;;;24.20;99.90;;;;;;5225784;28;20029;-75
2023/09/26 07:02:56;;;;;;;18.52;8.85;;;24.10;99.90;;;;;;5225881;28;20017;-75
2023/09/26 07:05:27;;;;;;;15.35;9.77;;;24.20;99.90;;;;;;5225674;28;20136;-75
2023/09/26 07:07:58;;;;;;;17.55;9.90;;;24.10;99.90;;;;;;5225824;28;20021;-75
2023/09/26 07:10:28;;;;;;;24.55;9.93;;;24.10;99.90;;;;;;5225347;28;20041;-75
2023/09/26 07:12:59;;;;;;;16.50;9.48;;;24.20;99.90;;;;;;5224301;28;20028;-74
2023/09/26 07:15:31;;;;;;;19.65;9.82;;;24.20;99.90;;;;;;5225680;28;20037;-75
2023/09/26 07:18:06;;;;;;;19.63;9.30;;;24.20;99.90;;;;;;5225681;28;20070;-75
2023/09/26 07:20:45;;;;;;;20.05;9.07;;;24.20;99.90;;;;;;5225750;28;20025;-75
2023/09/26 07:23:16;;;;;;;16.70;9.27;;;24.20;99.90;;;;;;5225625;28;20036;-75
2023/09/26 07:25:47;;;;;;;16.38;8.52;;;24.30;99.90;;;;;;5224777;28;20033;-75
2023/09/26 07:28:18;;;;;;;15.45;8.82;;;24.30;99.90;;;;;;5224822;28;20044;-75
2023/09/26 07:30:49;;;;;;;17.98;9.55;;;24.60;99.90;;;;;;5224074;28;20072;-75
2023/09/26 07:33:20;;;;;;;14.73;9.13;;;24.60;99.90;;;;;;5224109;28;20017;-74
2023/09/26 07:35:51;;;;;;;17.85;9.02;;;24.70;99.90;;;;;;5224283;28;20025;-75
2023/09/26 07:38:22;;;;;;;17.70;9.07;;;24.70;99.90;;;;;;5224268;28;20032;-75
2023/09/26 07:40:53;;;;;;;22.20;9.20;;;24.70;99.90;;;;;;5223924;28;20057;-74
2023/09/26 07:43:29;;;;;;;16.20;10.05;;;24.60;99.90;;;;;;5224702;28;20059;-75
2023/09/26 07:46:09;;;;;;;19.60;9.30;;;24.60;99.90;;;;;;5225346;28;20025;-75
2023/09/26 07:48:40;;;;;;;;;;;24.70;99.90;;;;;;5225721;28;20033;-75
2023/09/26 07:51:11;;;;;;;18.40;9.25;;;24.70;99.90;;;;;;5224960;28;19962;-74
2023/09/26 07:53:43;;;;;;;21.40;9.32;;;24.90;99.90;;;;;;5225258;28;20387;-74
2023/09/26 07:56:13;;;;;;;14.02;9.07;;;24.80;99.90;;;;;;5225197;28;20056;-74
2023/09/26 07:58:44;;;;;;;21.77;10.00;;;24.70;99.90;;;;;;5225048;28;20056;-75
2023/09/26 08:01:15;;;;;;;19.33;9.45;;;24.80;99.90;;;;;;5225174;28;20013;-74
2023/09/26 08:03:47;;;;;;;23.63;10.05;;;24.80;99.90;;;;;;5224969;28;20043;-75
2023/09/26 08:06:18;;;;;;;18.05;9.20;;;25.00;99.90;;;;;;5224981;28;20112;-74
2023/09/26 08:08:48;;;;;;;19.55;9.95;;;25.00;99.90;;;;;;5228457;28;21134;-75
2023/09/26 08:11:21;;;;;;;13.52;9.90;;;25.10;99.90;;;;;;5227238;28;20037;-75
2023/09/26 08:13:51;;;;;;;16.67;10.57;;;25.00;99.90;;;;;;5228738;28;20021;-75
2023/09/26 08:16:23;;;;;;;18.05;10.93;;;24.90;99.90;;;;;;5227571;28;20094;-75
2023/09/26 08:18:54;;;;;;;21.33;12.48;;;24.90;99.90;;;;;;5228635;28;20021;-75
2023/09/26 08:21:26;;;;;;;25.25;11.70;;;25.10;99.90;;;;;;5228091;28;20789;-75
2023/09/26 08:23:57;;;;;;;16.25;11.52;;;25.30;99.90;;;;;;5227843;28;20559;-76
2023/09/26 08:26:29;;;;;;;17.05;10.60;;;25.20;99.90;;;;;;5227191;28;20101;-75
2023/09/26 08:28:59;;;;;;;28.20;13.15;;;25.10;99.90;;;;;;5227230;28;20035;-75
2023/09/26 08:31:30;;;;;;;18.33;10.40;;;25.30;99.90;;;;;;5227078;28;20021;-75
2023/09/26 08:34:01;;;;;;;17.30;10.30;;;25.40;99.90;;;;;;5227032;28;20017;-75
2023/09/26 08:36:32;;;;;;;15.80;10.43;;;25.20;99.90;;;;;;5227202;28;20037;-75
2023/09/26 08:39:03;;;;;;;16.45;9.35;;;25.40;99.90;;;;;;5225951;28;20535;-75
2023/09/26 08:41:36;;;;;;;19.38;11.13;;;25.70;99.90;;;;;;5228157;28;20033;-75
2023/09/26 08:44:07;;;;;;;18.60;10.98;;;25.80;99.90;;;;;;5227922;28;20033;-75
2023/09/26 08:46:41;;;;;;;21.90;11.27;;;25.70;99.90;;;;;;5228196;28;20476;-74
2023/09/26 08:49:12;;;;;;;20.38;12.13;;;25.60;99.90;;;;;;5228277;28;20090;-75
2023/09/26 08:51:43;;;;;;;14.23;11.80;;;25.70;99.90;;;;;;5228538;28;20021;-75
2023/09/26 08:54:14;;;;;;;27.17;13.50;;;25.60;99.90;;;;;;5226658;28;20480;-74
2023/09/26 08:56:45;;;;;;;19.10;11.68;;;25.70;99.90;;;;;;5227961;28;20025;-74
2023/09/26 08:59:20;;;;;;;15.50;12.23;;;25.80;99.90;;;;;;5226642;28;20090;-74
2023/09/26 09:01:51;;;;;;;17.45;11.80;;;25.70;99.90;;;;;;5227620;28;20048;-75
2023/09/26 09:04:23;;;;;;;19.27;10.95;;;25.80;99.90;;;;;;5227512;28;20476;-75
2023/09/26 09:07:06;;;;;;;18.92;12.18;;;25.70;99.90;;;;;;5227791;28;20549;-75
2023/09/26 09:09:37;;;;;;;23.83;14.70;;;26.00;99.90;;;;;;5227360;28;20048;-74
2023/09/26 09:12:21;;;;;;;19.90;16.08;;;26.00;99.90;;;;;;5227512;28;20075;-74
2023/09/26 09:14:52;;;;;;;26.40;13.85;;;25.50;99.90;;;;;;5227539;28;20035;-75
2023/09/26 09:17:23;;;;;;;20.83;14.00;;;26.00;99.90;;;;;;5226736;28;20476;-75
2023/09/26 09:19:54;;;;;;;25.50;17.38;;;26.10;99.90;;;;;;5226661;28;20586;-75
2023/09/26 09:22:25;;;;;;;22.98;19.48;;;26.10;99.90;;;;;;5226175;28;20078;-75
2023/09/26 09:24:58;;;;;;;26.83;17.35;;;26.00;99.90;;;;;;5226006;28;20094;-75
2023/09/26 09:27:39;;;;;;;21.10;16.27;;;25.70;99.90;;;;;;5226029;28;20017;-75
2023/09/26 09:30:19;;;;;;;19.90;17.50;;;25.70;99.90;;;;;;5225938;28;20079;-75
2023/09/26 09:32:49;;;;;;;;;;;25.90;99.90;;;;;;5226733;28;20025;-75
2023/09/26 09:35:20;;;;;;;24.50;15.75;;;25.80;99.90;;;;;;5226772;28;19978;-74
2023/09/26 09:37:51;;;;;;;19.08;12.93;;;25.90;99.90;;;;;;5227218;28;20373;-74
2023/09/26 09:40:24;;;;;;;20.02;12.07;;;25.60;99.90;;;;;;5226481;28;20059;-74
2023/09/26 09:42:55;;;;;;;25.98;13.05;;;25.50;99.90;;;;;;5227049;28;20053;-74
2023/09/26 09:45:32;;;;;;;25.95;12.50;;;25.70;99.90;;;;;;5226950;28;20117;-74
2023/09/26 09:48:06;;;;;;;21.92;12.23;;;25.60;99.90;;;;;;5226866;28;20358;-75
2023/09/26 09:50:38;;;;;;;22.63;12.52;;;26.00;99.90;;;;;;5227068;28;20029;-75
2023/09/26 09:53:14;;;;;;;26.42;12.13;;;26.00;99.90;;;;;;5226836;28;20079;-75
2023/09/26 09:55:51;;;;;;;23.00;12.38;;;26.20;99.90;;;;;;5226678;28;20028;-75
2023/09/26 09:58:28;;;;;;;25.10;12.80;;;26.10;99.90;;;;;;5226791;28;20025;-75
2023/09/26 10:01:00;;;;;;;21.80;12.23;;;26.50;99.90;;;;;;5226989;28;20025;-75
2023/09/26 10:03:32;;;;;;;23.77;12.00;;;26.40;99.90;;;;;;5226899;28;20029;-74
2023/09/26 10:06:09;;;;;;;22.88;11.23;;;26.20;99.90;;;;;;5226518;28;20445;-74
2023/09/26 10:08:41;;;;;;;24.40;12.75;;;26.00;99.90;;;;;;5226436;28;20035;-75
2023/09/26 10:11:12;;;;;;;21.98;11.68;;;26.20;99.90;;;;;;5224759;28;20521;-75
2023/09/26 10:13:45;;;;;;;24.60;11.93;;;26.00;99.90;;;;;;5225768;28;20021;-75
2023/09/26 10:16:20;;;;;;;24.73;10.82;;;26.30;99.90;;;;;;5225452;28;20021;-75
2023/09/26 10:18:51;;;;;;;16.80;9.43;;;26.10;99.90;;;;;;5225064;28;20025;-75
2023/09/26 10:21:30;;;;;;;19.33;11.30;;;26.00;99.90;;;;;;5224855;28;20110;-74
2023/09/26 10:24:13;;;;;;;19.17;10.13;;;26.00;99.90;;;;;;5224886;28;20143;-76
2023/09/26 10:26:48;;;;;;;24.50;11.23;;;26.50;99.90;;;;;;5224937;28;20017;-75
2023/09/26 10:29:22;;;;;;;17.20;8.75;;;26.40;99.90;;;;;;5224570;28;20108;-75
2023/09/26 10:31:59;;;;;;;22.42;8.85;;;26.10;99.90;;;;;;5225937;28;20014;-75
2023/09/26 10:34:36;;;;;;;25.65;10.02;;;26.50;99.90;;;;;;5225910;28;20036;-74
2023/09/26 10:37:08;;;;;;;20.42;9.68;;;27.00;99.90;;;;;;5226018;28;20155;-75
2023/09/26 10:39:40;;;;;;;19.10;10.20;;;26.90;99.90;;;;;;5224695;28;20068;-74
2023/09/26 10:42:14;;;;;;;23.77;12.07;;;26.60;99.90;;;;;;5225299;28;20443;-75
2023/09/26 10:44:51;;;;;;;18.35;10.52;;;27.10;99.90;;;;;;5225312;28;20037;-75
2023/09/26 10:47:23;;;;;;;23.15;11.02;;;27.20;99.90;;;;;;5226245;28;20025;-75
2023/09/26 10:49:54;;;;;;;20.40;10.77;;;27.20;99.90;;;;;;5225927;28;20056;-75
2023/09/26 10:52:25;;;;;;;19.55;11.20;;;26.60;99.90;;;;;;5225923;28;20049;-75
2023/09/26 10:54:56;;;;;;;27.33;9.32;;;26.70;99.90;;;;;;5224698;28;20654;-75
2023/09/26 10:57:27;;;;;;;20.02;9.48;;;26.60;99.90;;;;;;5225182;28;20051;-75
2023/09/26 10:59:58;;;;;;;19.02;10.25;;;26.60;99.90;;;;;;5224334;28;20580;-74
2023/09/26 11:02:29;;;;;;;19.20;9.68;;;26.50;99.90;;;;;;5225669;28;20021;-75
2023/09/26 11:05:06;;;;;;;16.88;10.10;;;26.80;99.90;;;;;;5225598;28;20033;-74
2023/09/26 11:07:44;;;;;;;21.10;11.57;;;26.90;99.90;;;;;;5225796;28;20067;-75
2023/09/26 11:10:16;;;;;;;19.97;10.27;;;26.50;99.90;;;;;;5225316;28;20032;-75
2023/09/26 11:12:47;;;;;;;18.05;10.38;;;26.30;99.90;;;;;;5224611;28;20625;-75
2023/09/26 11:15:18;;;;;;;25.23;10.90;;;26.30;99.90;;;;;;5224663;28;20021;-75
2023/09/26 11:17:50;;;;;;;23.80;10.80;;;26.80;99.90;;;;;;5224441;28;20103;-75
2023/09/26 11:20:20;;;;;;;27.58;9.15;;;26.70;99.90;;;;;;5224311;28;20032;-75
2023/09/26 11:22:52;;;;;;;19.65;8.98;;;26.60;99.90;;;;;;5224545;28;20033;-75
2023/09/26 11:25:23;;;;;;;22.13;10.13;;;26.70;99.90;;;;;;5224051;28;20041;-75
2023/09/26 11:27:53;;;;;;;18.42;7.95;;;26.50;99.90;;;;;;5225125;28;20033;-75
2023/09/26 11:30:24;;;;;;;21.20;7.28;;;26.50;99.90;;;;;;5225360;28;20381;-75
2023/09/26 11:32:55;;;;;;;21.45;7.78;;;26.60;99.90;;;;;;5225072;28;20083;-75
2023/09/26 11:35:26;;;;;;;19.08;7.13;;;26.60;99.90;;;;;;5224182;28;20343;-75
2023/09/26 11:37:57;;;;;;;19.70;8.65;;;26.40;99.90;;;;;;5225296;28;20500;-75
2023/09/26 11:40:28;;;;;;;17.20;7.93;;;27.10;99.90;;;;;;5225021;28;20045;-75
2023/09/26 11:43:03;;;;;;;17.85;8.60;;;26.90;99.90;;;;;;5227584;28;20090;-75
2023/09/26 11:45:34;;;;;;;19.38;9.65;;;27.10;99.90;;;;;;5229241;28;20491;-74
2023/09/26 11:48:08;;;;;;;19.13;9.77;;;27.10;99.90;;;;;;5228018;28;20025;-75
2023/09/26 11:50:42;;;;;;;19.98;10.85;;;27.30;99.90;;;;;;5227705;28;20021;-75
2023/09/26 11:53:15;;;;;;;22.05;8.75;;;26.90;99.90;;;;;;5227794;28;20025;-76
2023/09/26 11:55:51;;;;;;;17.17;9.30;;;26.70;99.90;;;;;;5229158;28;20036;-73
2023/09/26 11:58:22;;;;;;;18.27;8.73;;;26.60;99.90;;;;;;5229001;28;20021;-76
2023/09/26 12:00:53;;;;;;;16.30;8.27;;;26.40;99.90;;;;;;5229384;28;20037;-76
2023/09/26 12:03:24;;;;;;;14.95;8.13;;;26.20;99.90;;;;;;5229073;28;20464;-76
2023/09/26 12:05:55;;;;;;;14.88;7.70;;;26.20;99.90;;;;;;5227939;28;20029;-76
2023/09/26 12:08:27;;;;;;;16.08;8.55;;;26.30;99.90;;;;;;5228287;28;20013;-76
2023/09/26 12:10:58;;;;;;;18.33;7.47;;;26.20;99.90;;;;;;5227553;28;20065;-74
2023/09/26 12:13:29;;;;;;;16.83;7.50;;;26.00;99.90;;;;;;5227637;28;20017;-76
2023/09/26 12:16:00;;;;;;;17.67;7.95;;;26.30;99.90;;;;;;5227490;28;20369;-76
2023/09/26 12:18:31;;;;;;;16.08;7.70;;;26.50;99.90;;;;;;5227498;28;20096;-76
2023/09/26 12:21:04;;;;;;;15.80;9.90;;;26.70;99.90;;;;;;5227510;28;20115;-76
2023/09/26 12:23:34;;;;;;;24.13;11.15;;;26.80;99.90;;;;;;5228036;28;20033;-75
2023/09/26 12:26:05;;;;;;;15.50;11.57;;;26.50;99.90;;;;;;5228606;28;20021;-75
2023/09/26 12:28:36;;;;;;;20.42;12.43;;;26.70;99.90;;;;;;5228636;28;20017;-76
2023/09/26 12:31:07;;;;;;;23.48;12.25;;;27.00;99.90;;;;;;5228454;28;20489;-75
2023/09/26 12:33:38;;;;;;;17.05;13.50;;;27.30;99.90;;;;;;5228432;28;20042;-75
2023/09/26 12:36:10;;;;;;;17.60;13.90;;;27.00;99.90;;;;;;5228004;28;20029;-75
2023/09/26 12:38:41;;;;;;;21.60;12.25;;;26.70;99.90;;;;;;5228123;28;20032;-75
2023/09/26 12:41:12;;;;;;;17.73;12.63;;;26.50;99.90;;;;;;5227758;28;20060;-74
2023/09/26 12:43:43;;;;;;;23.40;13.35;;;26.30;99.90;;;;;;5228093;28;20515;-74
2023/09/26 12:46:14;;;;;;;25.90;13.75;;;26.50;99.90;;;;;;5227965;28;20052;-74
2023/09/26 12:48:45;;;;;;;16.60;12.38;;;26.90;99.90;;;;;;5226832;28;20102;-74
2023/09/26 12:51:16;;;;;;;17.92;12.52;;;26.70;99.90;;;;;;5226257;28;20048;-75
2023/09/26 12:53:47;;;;;;;19.50;12.43;;;26.40;99.90;;;;;;5226071;28;20119;-74